Aérodrome :
LOGIN :

S'inscrire | Disclaimer

   EN    FR    IT 

 










Légende :    VFR   VFR Marginal   IFR   IFR Intensif   IFR Très Intensif
Visi : 
Plafond : 
>= 8 km
>= 3000ft
5 à 8 km
1000 à 3000 ft
1500m à 5 km
500 à 1000 ft
800 à 1500m
200 à 500 ft
< 800m
< 200 ft
Symboles :   Orages  Brouillard  Fortes neiges  Fortes précipitations  Vent > 20 kt
SIGMETs :   Divers  Orages  Givrage  Turbulence  Onde Orograph.  Cendres Volcan.







- Altitude de l'aérodrome : 778 ft
- Code IATA : BRQ


LKTB - Brno-Turany

DERNIER METAR :
  • 200930Z 17004KT 100V250 9999 FEW040 25/15 Q1017 NOSIG

METARs EXPIRÉS :
  • 200900Z 13004KT 080V190 9999 FEW040 25/16 Q1017 NOSIG
  • 200830Z 10006KT 050V160 CAVOK 25/16 Q1017 NOSIG
  • 200800Z 10005KT 080V160 CAVOK 24/15 Q1017 NOSIG
  • 200730Z 09005KT 050V130 CAVOK 22/16 Q1017 NOSIG
  • 200700Z 08006KT 050V110 CAVOK 22/15 Q1017 NOSIG

TAF TAF LKTB
Valide du 20 à 06h jusqu'au 21 à 12h UTC


200500Z 2006/2112 05006KT CAVOK
BECMG 2006/2008 14006KT
TEMPO 2022/2112 7000 SHRA SCT040TCU
PROB30
TEMPO 2022/2112 4000 TSRA SCT030CB
Pas de NOTAMs connus pour ce terrain.



MET'MAP, la Météo Aéronautique d'un coup d'oeil ! - Copyright ORBIFLY Décembre 2007 - Disclaimer

ORBIFLY MET'MAP TEAM :

Programmation & Développement : Alexandra Zaïnal
Conception & Développement : Baudouin d'Aumeries
Co-Programmation & Développement : Marc-Olivier Méhu
Soutien technique & logistique : Manuel Goepfert

Contact : metmap@orbifly.com




SOURCES & CREDITS :

   NOAA